Shults, OK

9:44 AM CDT on September 16, 2014 (GMT -0500)
Clarksville | Change Station
CLOSE
Current Station
Airport
Location: Clarksville,
Elevation: 440 ft
Nearby Weather Stations

Elev 440 ft 33.59 °N, 95.06 °W | Updated 18 days ago

Mostly Cloudy
Mostly Cloudy
77 °F
Feels Like 77 °F
N
6
Wind Variable Wind from East
Gusts 8 mph

Today
High -- | Low -- °F
--% Chance of Precip.
Yesterday
High -- | Low -- °F
Precip. -- in
7:02 AM 7:24 PM
Last Quarter, 45% visible
Pressure 29.93 in
Visibility 4.0 miles
Clouds Scattered Clouds 1400 ft
Mostly Cloudy 1900 ft
Mostly Cloudy 4000 ft
Dew Point 70 °F
Humidity 75%
Rainfall 0.00 in
Snow Depth Not available.
UV 2 out of 12
Pollen 9.90 out of 12
Air Quality Not available.
Flu Activity Not available.
METAR KLBR 291415Z AUTO 13003KT 4SM SCT014 BKN019 BKN040 27/24 A2993 RMK AO1 T02710239

More Conditions Fewer Conditions

Pressure 29.93 in
Visibility 4.0 miles
Clouds Scattered Clouds 1400 ft
Mostly Cloudy 1900 ft
Mostly Cloudy 4000 ft
Dew Point 70 °F
Humidity 75%
Rainfall 0.00 in
Snow Depth Not available.
UV 2 out of 12
Pollen 9.90 out of 12
Air Quality Not available.
Flu Activity Not available.
METAR KLBR 291415Z AUTO 13003KT 4SM SCT014 BKN019 BKN040 27/24 A2993 RMK AO1 T02710239

More Conditions Fewer Conditions

10-Day Weather Forecast

Almanac

Astronomy

Sep. 16, 2014 Rise Set
Actual Time 7:02 AM CDT 7:24 PM CDT
Civil Twilight 6:37 AM CDT 7:49 PM CDT
Nautical Twilight 6:08 AM CDT 8:18 PM CDT
Astronomical Twilight 5:38 AM CDT 8:47 PM CDT
Moon 12:25 AM CDT 2:36 PM CDT
Length of Visible Light 13h 11m
Length of Day
12h 21m
Tomorrow will be 2m 5s shorter.
Last Quarter, 45% of the Moon is Illuminated
Today
Last Quarter
Sep 24
New
Oct 1
First Quarter
Oct 8
Full
Oct 15
Last Quarter

Today's Extremes

State Highs State Lows

Community

WunderPhotos

Upload Photos

1,753,795 photos uploaded!

Nearby

Snow Depth

Station Depth Elevation
No new snow has been reported.

Earthquake Activity

City Distance Mag. Time & Date
No recent earthquake activity has been reported nearby.
Minimum magnitude displayed is 2.5.

Coastal Water Temperatures

Place Temperature
No Stations Reporting

Nearby Weather Stations